Time;durP1;ratioP1;P1;durP2;ratioP2;P2;SDS_P1;SDS_P2;PMS_P1;PMS_P2;Temp;Humidity;BMP_temperature;BMP_pressure;BME280_temperature;BME280_humidity;BME280_pressure;Samples;Min_cycle;Max_cycle;Signal;HPM_P1;HPM_P2
2022/03/26 05:01:44;;;;;;;74.97;29.77;;;4.40;99.90;;;;;;5452165;22;20050;-89
2022/03/26 05:04:13;;;;;;;84.70;32.65;;;4.40;99.90;;;;;;5000825;28;20045;-91
2022/03/26 05:06:39;;;;;;;78.25;32.22;;;4.40;99.90;;;;;;4984213;28;20139;-89
2022/03/26 05:09:05;;;;;;;73.50;31.15;;;4.40;99.90;;;;;;5018066;28;20018;-89
2022/03/26 05:11:30;;;;;;;81.35;33.67;;;4.40;99.90;;;;;;4989850;28;20038;-90
2022/03/26 05:13:57;;;;;;;74.70;30.42;;;4.40;99.90;;;;;;4980741;28;20045;-90
2022/03/26 05:16:23;;;;;;;70.93;29.23;;;4.30;99.90;;;;;;4963667;28;20034;-89
2022/03/26 05:18:48;;;;;;;73.55;30.90;;;4.10;99.90;;;;;;4980728;28;20099;-91
2022/03/26 05:21:14;;;;;;;65.25;26.83;;;4.00;99.90;;;;;;4974338;28;20050;-91
2022/03/26 05:23:40;;;;;;;72.78;28.75;;;3.90;99.90;;;;;;4974887;28;20054;-89
2022/03/26 05:26:06;;;;;;;69.65;27.42;;;3.80;99.90;;;;;;4966843;28;20042;-90
2022/03/26 05:28:33;;;;;;;77.45;29.52;;;3.90;99.90;;;;;;4999414;28;20043;-90
2022/03/26 05:30:58;;;;;;;78.50;32.45;;;3.80;99.90;;;;;;4980962;28;20072;-91
2022/03/26 05:33:24;;;;;;;87.88;34.38;;;3.80;99.90;;;;;;4964650;28;20057;-90
2022/03/26 05:35:50;;;;;;;85.28;32.95;;;3.80;99.90;;;;;;4964704;28;20133;-91
2022/03/26 05:38:26;;;;;;;;;;;;;;;;;;;;;
2022/03/26 05:40:52;;;;;;;92.38;36.55;;;3.80;99.90;;;;;;4980415;28;20049;-91
2022/03/26 05:43:17;;;;;;;91.88;37.88;;;3.80;99.90;;;;;;4963752;28;20042;-89
2022/03/26 05:45:44;;;;;;;83.60;33.03;;;3.90;99.90;;;;;;4964804;28;20045;-89
2022/03/26 05:48:09;;;;;;;97.35;37.47;;;3.90;99.90;;;;;;4963880;28;20045;-88
2022/03/26 05:50:38;;;;;;;104.22;38.22;;;3.90;99.90;;;;;;4963722;28;20132;-90
2022/03/26 05:53:04;;;;;;;80.47;32.13;;;3.90;99.90;;;;;;4964802;28;20038;-90
2022/03/26 05:55:29;;;;;;;75.07;30.30;;;4.00;99.90;;;;;;4964986;28;20191;-89
2022/03/26 05:57:55;;;;;;;69.20;28.27;;;3.90;99.90;;;;;;4964390;28;20104;-89
2022/03/26 06:00:21;;;;;;;69.72;27.65;;;3.90;99.90;;;;;;4980125;28;20042;-89
2022/03/26 06:02:47;;;;;;;70.25;30.20;;;3.80;99.90;;;;;;4964438;28;20030;-90
2022/03/26 06:05:13;;;;;;;82.40;34.35;;;3.80;99.90;;;;;;4980577;28;20045;-90
2022/03/26 06:07:39;;;;;;;87.97;35.63;;;3.80;99.90;;;;;;4997249;28;20042;-89
2022/03/26 06:10:05;;;;;;;87.28;34.72;;;3.80;99.90;;;;;;4980403;28;20050;-90
2022/03/26 06:12:31;;;;;;;85.18;34.97;;;3.80;99.90;;;;;;4963753;28;20072;-91
2022/03/26 06:14:57;;;;;;;84.35;34.08;;;3.90;99.90;;;;;;4965095;28;20042;-90
2022/03/26 06:17:23;;;;;;;98.10;38.92;;;4.00;99.90;;;;;;4964736;28;20112;-90
2022/03/26 06:19:49;;;;;;;81.22;34.47;;;4.00;99.90;;;;;;4980405;28;20054;-89
2022/03/26 06:22:14;;;;;;;83.82;34.15;;;4.10;99.90;;;;;;4980515;28;20046;-89
2022/03/26 06:24:40;;;;;;;80.65;32.90;;;4.10;99.90;;;;;;4980305;28;20038;-89
2022/03/26 06:27:06;;;;;;;77.40;32.15;;;4.10;99.90;;;;;;4980922;28;20040;-89
2022/03/26 06:29:36;;;;;;;93.43;34.85;;;4.10;99.90;;;;;;4963196;28;20057;-91
2022/03/26 06:32:03;;;;;;;83.80;33.60;;;4.10;99.90;;;;;;4980696;28;20050;-90
2022/03/26 06:34:29;;;;;;;86.80;33.58;;;4.20;99.90;;;;;;4980052;28;20494;-90
2022/03/26 06:36:55;;;;;;;87.47;37.10;;;4.30;99.90;;;;;;4979428;28;20049;-87
2022/03/26 06:39:21;;;;;;;88.93;33.10;;;4.30;99.90;;;;;;4963857;28;20046;-90
2022/03/26 06:41:46;;;;;;;89.47;35.65;;;4.40;99.90;;;;;;4997003;28;20069;-89
2022/03/26 06:44:12;;;;;;;106.97;41.75;;;4.40;99.90;;;;;;4979830;28;20371;-90
2022/03/26 06:46:39;;;;;;;128.18;48.42;;;4.50;99.90;;;;;;4964285;28;20070;-90
2022/03/26 06:49:07;;;;;;;106.25;41.63;;;4.60;99.90;;;;;;4964944;28;20061;-90
2022/03/26 06:51:33;;;;;;;117.68;45.72;;;4.70;99.90;;;;;;4964521;28;20049;-90
2022/03/26 06:53:59;;;;;;;115.53;45.47;;;4.80;99.90;;;;;;4963387;28;20038;-91
2022/03/26 06:56:25;;;;;;;99.50;38.83;;;4.90;99.90;;;;;;4963543;28;20096;-90
2022/03/26 06:58:51;;;;;;;128.60;46.83;;;4.90;99.90;;;;;;4979528;28;20038;-89
2022/03/26 07:01:17;;;;;;;123.72;46.00;;;5.00;99.90;;;;;;4963626;28;20034;-90
2022/03/26 07:03:43;;;;;;;127.47;49.50;;;5.10;99.90;;;;;;4982421;28;20042;-91
2022/03/26 07:06:09;;;;;;;161.15;59.38;;;5.20;99.90;;;;;;4983351;28;20045;-90
2022/03/26 07:08:35;;;;;;;170.45;61.72;;;5.30;99.90;;;;;;5000993;28;20402;-90
2022/03/26 07:11:02;;;;;;;176.73;64.13;;;5.40;99.90;;;;;;4984099;28;20048;-89
2022/03/26 07:13:27;;;;;;;178.02;63.38;;;5.50;99.90;;;;;;4967854;28;20050;-91
2022/03/26 07:15:53;;;;;;;171.38;63.85;;;5.70;99.90;;;;;;4967747;28;20094;-90
2022/03/26 07:18:19;;;;;;;174.25;63.30;;;5.80;99.90;;;;;;4965824;28;20041;-90
2022/03/26 07:20:44;;;;;;;180.23;63.25;;;5.90;99.90;;;;;;4966830;28;20493;-90
2022/03/26 07:23:10;;;;;;;176.18;64.85;;;6.10;99.90;;;;;;4982770;28;20038;-85
2022/03/26 07:25:36;;;;;;;160.68;61.83;;;6.20;99.90;;;;;;4997966;28;20425;-80
2022/03/26 07:28:01;;;;;;;165.38;59.83;;;6.40;99.90;;;;;;5000639;28;20046;-92
2022/03/26 07:34:16;;;;;;;147.90;58.50;;;6.60;99.90;;;;;;4932619;28;20052;-92
2022/03/26 07:36:55;;;;;;;;;;;;;;;;;;;;;
2022/03/26 07:40:21;;;;;;;143.73;55.83;;;7.10;99.90;;;;;;4986022;28;20046;-91
2022/03/26 07:42:47;;;;;;;127.30;50.17;;;7.30;99.90;;;;;;4954384;28;20394;-85
2022/03/26 07:45:12;;;;;;;123.20;51.10;;;7.60;99.90;;;;;;4979788;28;20038;-86
2022/03/26 07:47:38;;;;;;;121.57;48.85;;;7.70;99.90;;;;;;4964583;28;20046;-88
2022/03/26 07:50:06;;;;;;;123.88;48.75;;;7.80;99.90;;;;;;4980466;28;20077;-87
2022/03/26 07:52:32;;;;;;;116.35;51.70;;;8.00;99.90;;;;;;4980905;28;20085;-89
2022/03/26 08:16:18;;;;;;;;;;;;;;;;;;;;;
2022/03/26 08:48:22;;;;;;;78.22;33.47;;;10.70;99.90;;;;;;5015653;28;20053;-89
2022/03/26 08:50:48;;;;;;;76.00;32.10;;;10.90;99.90;;;;;;4996744;28;20049;-88
2022/03/26 08:53:14;;;;;;;67.00;34.05;;;11.00;99.90;;;;;;4964590;28;20046;-89
2022/03/26 08:55:40;;;;;;;74.70;32.42;;;11.20;99.90;;;;;;4998695;28;20081;-88
2022/03/26 08:58:09;;;;;;;67.75;30.35;;;11.40;99.90;;;;;;4980394;28;20047;-89
2022/03/26 09:00:35;;;;;;;63.22;30.33;;;11.50;99.90;;;;;;4964559;28;20095;-88
2022/03/26 09:03:02;;;;;;;69.80;30.30;;;11.60;99.90;;;;;;4965623;28;20424;-90
2022/03/26 09:05:28;;;;;;;69.50;30.92;;;11.80;99.90;;;;;;4965286;28;20093;-88
2022/03/26 09:07:54;;;;;;;66.57;31.00;;;11.90;99.90;;;;;;4964567;28;20042;-88
2022/03/26 09:10:20;;;;;;;65.63;30.40;;;12.10;99.90;;;;;;4963834;28;20089;-88
2022/03/26 09:12:47;;;;;;;61.15;29.92;;;12.20;99.90;;;;;;4997539;28;20038;-86
2022/03/26 09:15:15;;;;;;;69.15;31.40;;;12.30;99.90;;;;;;4978812;28;20483;-86
2022/03/26 09:17:41;;;;;;;63.30;31.63;;;12.50;99.90;;;;;;4963870;28;20121;-88
2022/03/26 09:20:08;;;;;;;66.57;29.77;;;12.70;99.90;;;;;;4979945;28;20490;-87
2022/03/26 09:22:34;;;;;;;66.90;29.80;;;12.80;99.90;;;;;;4997112;28;20088;-87
2022/03/26 09:25:01;;;;;;;67.82;30.40;;;13.00;99.90;;;;;;4978928;28;20082;-88
2022/03/26 09:27:27;;;;;;;61.25;29.33;;;13.10;99.90;;;;;;4978702;28;20501;-88
2022/03/26 09:29:53;;;;;;;61.35;28.02;;;13.30;99.90;;;;;;4996680;28;20466;-88
2022/03/26 09:32:19;;;;;;;59.95;28.30;;;13.40;99.90;;;;;;4962476;28;20086;-87
2022/03/26 09:34:45;;;;;;;58.90;26.25;;;13.60;99.90;;;;;;4965766;28;20038;-88
2022/03/26 09:37:12;;;;;;;58.90;25.48;;;13.80;99.90;;;;;;4966040;28;20030;-87
2022/03/26 09:39:38;;;;;;;52.47;25.27;;;13.90;99.90;;;;;;4981203;28;20046;-87
2022/03/26 09:42:05;;;;;;;48.97;24.08;;;14.00;99.90;;;;;;5000943;28;20096;-87
2022/03/26 09:44:32;;;;;;;50.15;25.45;;;14.20;99.90;;;;;;4997537;28;20057;-86
2022/03/26 09:46:58;;;;;;;53.55;25.98;;;14.40;99.90;;;;;;4979511;28;20110;-87
2022/03/26 09:49:24;;;;;;;51.55;25.60;;;14.40;99.90;;;;;;4995550;28;20038;-87
2022/03/26 09:52:05;;;;;;;48.92;24.50;;;14.60;99.90;;;;;;4986596;28;20072;-88
2022/03/26 09:54:32;;;;;;;55.72;26.23;;;14.70;99.90;;;;;;4999312;28;20045;-87
2022/03/26 09:57:13;;;;;;;54.05;25.38;;;14.80;99.90;;;;;;4980906;28;20034;-88
2022/03/26 10:00:04;;;;;;;50.33;25.50;;;15.00;99.90;;;;;;4980974;28;20043;-88
2022/03/26 10:02:45;;;;;;;56.83;28.35;;;15.10;99.90;;;;;;4981050;28;20050;-87
2022/03/26 10:05:37;;;;;;;54.83;25.45;;;15.20;99.90;;;;;;4983005;28;20391;-88
2022/03/26 10:12:15;;;;;;;48.17;27.38;;;15.50;99.90;;;;;;4944789;28;20046;-89
2022/03/26 10:15:00;;;;;;;52.10;26.63;;;15.60;99.90;;;;;;4979600;28;20042;-88
2022/03/26 10:22:28;;;;;;;51.78;27.55;;;15.90;99.90;;;;;;4936703;29;20052;-88
2022/03/26 10:25:05;;;;;;;52.72;28.38;;;16.10;99.90;;;;;;4863212;29;20057;-88
2022/03/26 10:27:42;;;;;;;47.55;27.17;;;16.30;99.90;;;;;;4860451;29;20044;-88
2022/03/26 10:30:10;;;;;;;50.10;26.17;;;16.40;99.90;;;;;;4924714;28;20096;-89
2022/03/26 10:32:41;;;;;;;49.13;27.67;;;16.40;99.90;;;;;;4943845;28;20039;-90
2022/03/26 10:35:18;;;;;;;52.47;26.58;;;16.50;99.90;;;;;;4959778;28;20490;-90
2022/03/26 10:38:03;;;;;;;46.17;24.38;;;16.50;99.90;;;;;;4959383;28;20051;-90
2022/03/26 10:40:29;;;;;;;;;;;16.60;99.90;;;;;;4947514;28;20069;-90
2022/03/26 10:43:12;;;;;;;43.72;24.95;;;16.70;99.90;;;;;;4979588;28;19918;-89
2022/03/26 10:45:51;;;;;;;50.53;25.60;;;16.90;99.90;;;;;;4947436;28;20051;-90
2022/03/26 10:48:29;;;;;;;43.42;22.20;;;16.90;99.90;;;;;;4947723;28;20458;-89
2022/03/26 10:51:06;;;;;;;39.53;20.85;;;17.00;99.90;;;;;;4966968;28;20042;-90
2022/03/26 10:53:50;;;;;;;32.60;19.35;;;17.10;99.90;;;;;;4967311;28;20042;-91
2022/03/26 10:56:26;;;;;;;36.13;20.80;;;17.30;99.90;;;;;;4983850;28;20122;-90
2022/03/26 10:58:52;;;;;;;32.72;19.23;;;17.50;99.90;;;;;;4982030;28;20050;-90
2022/03/26 11:01:27;;;;;;;32.97;18.70;;;17.60;99.90;;;;;;5002079;23;20050;-89
2022/03/26 11:04:22;;;;;;;30.10;18.08;;;17.70;99.90;;;;;;4943043;29;20143;-89
2022/03/26 11:07:04;;;;;;;30.25;17.92;;;17.90;99.90;;;;;;4927761;29;20050;-88
2022/03/26 11:09:31;;;;;;;28.13;17.20;;;17.90;99.90;;;;;;4926040;29;20423;-89
2022/03/26 11:11:58;;;;;;;31.58;18.85;;;18.00;99.90;;;;;;4943655;29;20122;-88
2022/03/26 11:14:33;;;;;;;31.80;18.02;;;18.10;99.90;;;;;;4943338;29;20059;-82
2022/03/26 11:17:34;;;;;;;30.42;17.33;;;18.30;99.90;;;;;;4928313;29;20049;-87
2022/03/26 11:20:14;;;;;;;27.17;16.90;;;18.50;99.90;;;;;;4942306;29;20063;-85
2022/03/26 11:23:14;;;;;;;31.75;19.02;;;18.50;99.90;;;;;;4958192;29;20580;-85
2022/03/26 11:26:01;;;;;;;34.63;19.90;;;18.60;99.90;;;;;;4941915;29;20050;-86
2022/03/26 11:28:50;;;;;;;30.88;17.20;;;18.70;99.90;;;;;;4943115;29;20050;-86
2022/03/26 11:31:48;;;;;;;25.85;14.00;;;18.80;99.90;;;;;;4942000;29;20043;-86
2022/03/26 11:34:18;;;;;;;29.25;17.35;;;18.90;99.90;;;;;;4966374;28;20142;-86
2022/03/26 11:36:43;;;;;;;27.88;16.45;;;18.70;99.90;;;;;;4999017;28;20042;-85
2022/03/26 11:39:12;;;;;;;23.63;14.07;;;18.70;99.90;;;;;;4964401;28;20440;-84
2022/03/26 11:41:39;;;;;;;19.90;13.32;;;18.90;99.90;;;;;;4995417;28;20042;-86
2022/03/26 11:44:07;;;;;;;20.50;12.30;;;19.10;99.90;;;;;;4980931;28;20046;-86
2022/03/26 11:52:30;;;;;;;18.38;10.20;;;19.40;99.10;;;;;;4997736;28;20445;-86
2022/03/26 11:55:14;;;;;;;16.17;10.07;;;19.30;97.30;;;;;;4996265;28;20048;-85
2022/03/26 11:57:40;;;;;;;17.90;10.95;;;19.20;97.60;;;;;;4980430;28;20348;-86
2022/03/26 12:00:16;;;;;;;17.50;9.90;;;19.20;97.40;;;;;;4980432;28;20045;-83
2022/03/26 12:02:53;;;;;;;14.63;9.68;;;19.30;97.50;;;;;;4979733;28;20042;-85
2022/03/26 12:08:15;;;;;;;17.13;10.38;;;19.70;97.00;;;;;;4979563;28;20054;-85
2022/03/26 12:10:41;;;;;;;17.67;9.98;;;19.90;95.70;;;;;;4963706;28;20046;-85
2022/03/26 12:13:08;;;;;;;16.95;8.25;;;20.10;96.20;;;;;;4979557;28;20038;-85
2022/03/26 12:15:35;;;;;;;22.17;8.82;;;20.10;94.80;;;;;;4979537;28;20046;-84
2022/03/26 12:18:11;;;;;;;11.00;7.75;;;20.20;94.30;;;;;;4997074;28;20429;-85
2022/03/26 12:20:38;;;;;;;10.95;7.20;;;20.40;93.40;;;;;;4979047;28;20050;-85
2022/03/26 12:23:07;;;;;;;14.70;7.20;;;20.60;92.60;;;;;;4963196;28;20078;-83
2022/03/26 12:26:01;;;;;;;14.63;7.60;;;20.60;91.40;;;;;;4979722;28;20034;-85
2022/03/26 12:28:35;;;;;;;10.80;7.32;;;20.50;91.00;;;;;;4946924;28;20050;-85
2022/03/26 12:31:06;;;;;;;11.70;6.88;;;20.70;90.50;;;;;;4978965;28;20117;-85
2022/03/26 12:33:44;;;;;;;10.50;7.20;;;20.70;89.30;;;;;;4962579;28;20054;-85
2022/03/26 12:36:12;;;;;;;11.23;6.82;;;20.60;89.60;;;;;;4978851;28;20051;-85
2022/03/26 12:38:38;;;;;;;12.45;7.60;;;20.50;88.40;;;;;;4978813;28;20058;-85
2022/03/26 12:41:06;;;;;;;11.35;7.15;;;20.30;88.20;;;;;;4979262;28;20049;-84
2022/03/26 12:43:32;;;;;;;10.20;6.20;;;20.20;88.40;;;;;;4979000;28;20509;-84
2022/03/26 12:45:59;;;;;;;12.13;6.70;;;20.20;89.60;;;;;;4979039;28;20486;-84
2022/03/26 12:48:29;;;;;;;12.45;7.22;;;20.40;90.20;;;;;;4962091;28;20061;-85
2022/03/26 12:51:02;;;;;;;11.27;7.07;;;20.50;89.00;;;;;;4978288;28;20382;-85
2022/03/26 12:53:45;;;;;;;10.40;6.97;;;20.70;88.40;;;;;;4979491;28;20046;-84
2022/03/26 12:56:12;;;;;;;14.88;7.10;;;20.70;87.30;;;;;;4978342;28;20398;-84
2022/03/26 12:58:57;;;;;;;12.02;7.68;;;20.90;85.90;;;;;;4978931;28;20058;-83
2022/03/26 13:01:24;;;;;;;9.18;6.50;;;20.80;84.90;;;;;;4978430;28;20057;-84
2022/03/26 13:03:51;;;;;;;9.68;6.53;;;20.70;86.00;;;;;;4979152;28;20050;-83
2022/03/26 13:06:19;;;;;;;9.88;6.40;;;20.80;85.30;;;;;;4996479;28;20038;-85
2022/03/26 13:08:55;;;;;;;10.65;6.15;;;20.80;85.20;;;;;;4962978;28;20497;-84
2022/03/26 13:11:24;;;;;;;12.40;6.72;;;20.90;85.00;;;;;;4996885;28;20046;-84
2022/03/26 13:13:55;;;;;;;9.55;5.80;;;20.90;84.30;;;;;;4962131;28;20069;-83
2022/03/26 13:16:24;;;;;;;10.60;6.30;;;21.00;82.50;;;;;;4996049;28;20092;-83
2022/03/26 13:19:00;;;;;;;12.07;6.25;;;21.10;81.50;;;;;;4977931;28;20042;-82
2022/03/26 13:21:28;;;;;;;10.45;6.40;;;21.40;82.10;;;;;;4962133;28;20049;-84
2022/03/26 13:24:04;;;;;;;9.75;6.47;;;21.40;79.30;;;;;;4962317;28;20501;-85
2022/03/26 13:26:43;;;;;;;12.35;6.65;;;21.40;79.90;;;;;;4996223;28;20446;-85
2022/03/26 13:29:16;;;;;;;11.65;6.88;;;21.30;80.60;;;;;;4996596;28;20049;-85
2022/03/26 13:31:47;;;;;;;11.48;5.90;;;21.10;80.50;;;;;;5003002;28;20045;-86
2022/03/26 13:34:24;;;;;;;10.23;5.45;;;21.10;79.60;;;;;;5004959;28;20034;-85
2022/03/26 13:36:50;;;;;;;9.80;5.72;;;21.20;79.50;;;;;;4969421;28;20070;-84
2022/03/26 13:42:53;;;;;;;8.00;4.80;;;21.00;80.60;;;;;;4974663;28;20418;-85
2022/03/26 13:45:19;;;;;;;7.18;4.85;;;20.90;81.60;;;;;;4961989;28;20047;-86
2022/03/26 13:52:26;;;;;;;7.97;5.38;;;20.80;79.80;;;;;;4955133;29;20046;-85
2022/03/26 13:54:52;;;;;;;10.70;5.97;;;20.90;81.00;;;;;;4928862;29;20054;-85
2022/03/26 13:57:32;;;;;;;9.68;5.70;;;21.00;80.60;;;;;;4973958;28;20058;-85
2022/03/26 14:00:07;;;;;;;10.52;5.93;;;21.10;80.40;;;;;;4978057;28;20096;-85
2022/03/26 14:02:37;;;;;;;8.85;5.47;;;20.80;80.40;;;;;;4962814;28;20034;-86
2022/03/26 14:05:04;;;;;;;10.32;6.00;;;20.80;81.30;;;;;;4995949;28;20038;-86
2022/03/26 14:07:30;;;;;;;7.60;4.85;;;20.90;80.00;;;;;;4962360;28;20093;-86
2022/03/26 14:09:56;;;;;;;9.25;4.43;;;20.90;78.30;;;;;;4978114;28;20046;-85
2022/03/26 14:12:21;;;;;;;7.88;4.55;;;20.50;78.10;;;;;;4978171;28;20106;-86
2022/03/26 14:14:47;;;;;;;9.88;5.20;;;20.10;79.60;;;;;;4978503;28;20100;-85
2022/03/26 14:17:14;;;;;;;8.82;5.68;;;20.30;81.80;;;;;;4977976;28;20046;-83
2022/03/26 14:19:40;;;;;;;10.45;5.88;;;20.40;81.50;;;;;;4977198;28;20112;-85
2022/03/26 14:22:05;;;;;;;9.52;5.78;;;20.30;80.80;;;;;;4978632;28;20046;-82
2022/03/26 14:24:32;;;;;;;11.43;5.72;;;19.90;81.80;;;;;;4996253;28;20478;-84
2022/03/26 14:26:58;;;;;;;17.73;6.95;;;19.90;83.00;;;;;;4961931;28;20065;-87
2022/03/26 14:29:24;;;;;;;10.95;6.50;;;20.10;83.30;;;;;;4996860;28;20482;-87
2022/03/26 14:31:50;;;;;;;10.10;6.30;;;20.30;83.80;;;;;;4978788;28;20502;-82
2022/03/26 14:34:16;;;;;;;12.43;6.75;;;20.60;83.60;;;;;;4979323;28;20046;-86
2022/03/26 14:36:42;;;;;;;10.85;6.53;;;20.80;83.80;;;;;;4977962;28;20046;-85
2022/03/26 14:39:07;;;;;;;10.13;6.00;;;20.80;83.20;;;;;;4978976;28;20034;-83
2022/03/26 14:41:33;;;;;;;7.78;4.90;;;20.80;83.80;;;;;;4961763;28;20042;-81
2022/03/26 14:43:59;;;;;;;7.13;3.97;;;20.70;84.00;;;;;;4995655;28;20081;-85
2022/03/26 14:46:24;;;;;;;8.10;3.80;;;20.80;83.80;;;;;;4978662;28;20042;-88
2022/03/26 14:48:50;;;;;;;7.78;4.00;;;21.00;82.10;;;;;;4979610;28;20042;-87
2022/03/26 14:51:16;;;;;;;4.63;2.67;;;20.70;81.40;;;;;;4979496;28;20502;-88
2022/03/26 14:53:41;;;;;;;4.57;2.45;;;20.60;81.80;;;;;;4996071;28;20038;-84
2022/03/26 14:56:10;;;;;;;4.43;2.80;;;20.60;82.00;;;;;;4995643;28;20495;-91
2022/03/26 14:58:46;;;;;;;5.70;3.20;;;20.70;82.30;;;;;;4980665;28;20026;-88
2022/03/26 15:01:14;;;;;;;6.25;3.03;;;20.60;82.40;;;;;;4963327;28;20070;-91
2022/03/26 15:04:00;;;;;;;;;;;;;;;;;;;;;
2022/03/26 15:06:39;;;;;;;;;;;;;;;;;;;;;
2022/03/26 15:09:08;;;;;;;5.13;3.17;;;20.10;85.80;;;;;;4980021;28;20050;-90
2022/03/26 15:11:37;;;;;;;5.03;3.00;;;20.10;87.40;;;;;;4979893;28;20047;-90
2022/03/26 15:14:19;;;;;;;5.63;2.95;;;20.30;86.10;;;;;;4964989;28;20066;-91
2022/03/26 15:17:37;;;;;;;;;;;;;;;;;;;;;
2022/03/26 15:20:19;;;;;;;10.60;6.30;;;20.20;86.90;;;;;;5007630;28;20068;-90
2022/03/26 15:22:51;;;;;;;7.22;4.57;;;20.30;87.70;;;;;;4972040;28;20181;-89
2022/03/26 15:25:29;;;;;;;5.57;3.03;;;20.40;89.10;;;;;;4980379;28;20046;-90
2022/03/26 15:28:14;;;;;;;;;;;;;;;;;;;;;
2022/03/26 15:30:40;;;;;;;4.38;2.83;;;19.90;86.40;;;;;;4989169;28;20058;-90
2022/03/26 15:33:08;;;;;;;5.70;2.92;;;19.30;87.30;;;;;;4985318;28;20112;-91
2022/03/26 15:35:34;;;;;;;7.03;3.78;;;19.00;88.50;;;;;;4966973;28;20372;-91
2022/03/26 15:38:13;;;;;;;6.28;3.72;;;18.60;89.90;;;;;;4981946;28;20057;-90
2022/03/26 15:40:39;;;;;;;6.85;3.83;;;18.40;90.70;;;;;;4965790;28;20426;-90
2022/03/26 15:43:05;;;;;;;10.02;4.57;;;18.20;91.50;;;;;;4983212;28;20046;-89
2022/03/26 15:45:30;;;;;;;8.68;3.72;;;18.10;92.50;;;;;;4966167;28;20057;-85
2022/03/26 15:47:56;;;;;;;6.68;3.38;;;18.30;93.80;;;;;;4983342;28;20046;-84
2022/03/26 15:50:22;;;;;;;7.78;3.85;;;18.10;94.30;;;;;;4981840;28;20046;-85
2022/03/26 15:52:47;;;;;;;8.65;3.80;;;18.00;95.00;;;;;;4982326;28;20479;-85
2022/03/26 15:55:23;;;;;;;8.07;4.40;;;17.90;96.10;;;;;;4981777;28;20078;-86
2022/03/26 15:57:50;;;;;;;10.55;5.00;;;17.90;97.50;;;;;;4998844;28;20571;-84
2022/03/26 16:00:16;;;;;;;11.57;6.72;;;17.80;97.90;;;;;;4965356;28;20054;-85
2022/03/26 16:02:42;;;;;;;7.75;4.50;;;17.80;98.10;;;;;;4981281;28;20069;-84
2022/03/26 16:05:08;;;;;;;8.30;4.15;;;17.70;98.90;;;;;;4979651;28;20121;-84
2022/03/26 16:07:37;;;;;;;9.38;4.60;;;17.50;99.70;;;;;;4996810;28;20038;-85
2022/03/26 16:10:04;;;;;;;7.93;4.57;;;17.50;99.90;;;;;;4980311;28;20064;-85
2022/03/26 16:12:30;;;;;;;6.15;3.53;;;17.40;99.90;;;;;;4979966;28;20050;-85
2022/03/26 16:14:56;;;;;;;7.32;2.97;;;17.30;99.90;;;;;;4971064;28;20093;-85
2022/03/26 16:17:21;;;;;;;5.22;3.00;;;17.10;99.90;;;;;;4961188;28;20050;-85
2022/03/26 16:19:47;;;;;;;5.55;3.00;;;16.90;99.90;;;;;;4978359;28;20039;-85
2022/03/26 16:22:13;;;;;;;6.13;3.15;;;17.00;99.90;;;;;;4960550;28;20046;-83
2022/03/26 16:24:38;;;;;;;6.05;3.20;;;17.10;99.90;;;;;;4945014;28;20113;-85
2022/03/26 16:27:04;;;;;;;5.70;3.60;;;17.20;99.90;;;;;;4961571;28;20467;-85
2022/03/26 16:29:29;;;;;;;8.23;3.13;;;17.10;99.90;;;;;;4944262;28;20525;-84
2022/03/26 16:31:55;;;;;;;6.25;3.38;;;16.90;99.90;;;;;;4978255;28;20066;-85
2022/03/26 16:34:21;;;;;;;6.22;2.80;;;16.90;99.90;;;;;;4945062;28;20439;-85
2022/03/26 16:36:46;;;;;;;5.75;2.60;;;17.00;99.90;;;;;;4975661;28;20064;-85
2022/03/26 16:39:12;;;;;;;7.50;3.25;;;17.10;99.90;;;;;;4980517;28;20081;-85
2022/03/26 16:41:38;;;;;;;6.97;3.53;;;17.10;99.90;;;;;;4980037;28;20046;-85
2022/03/26 16:44:18;;;;;;;8.98;4.38;;;17.10;99.90;;;;;;4980277;28;20034;-84
2022/03/26 16:46:47;;;;;;;8.18;3.50;;;16.90;99.90;;;;;;4980002;28;20046;-85
2022/03/26 16:49:13;;;;;;;9.63;3.17;;;16.60;99.90;;;;;;4979704;28;20081;-84
2022/03/26 16:51:39;;;;;;;8.05;2.17;;;16.50;99.90;;;;;;4997423;28;20034;-84
2022/03/26 16:54:05;;;;;;;8.38;2.53;;;16.30;99.90;;;;;;4997616;28;20038;-84
2022/03/26 16:56:31;;;;;;;7.75;2.30;;;16.20;99.90;;;;;;4978398;28;20045;-83
2022/03/26 16:58:56;;;;;;;7.10;2.03;;;16.00;99.90;;;;;;4980217;28;20548;-84
2022/03/26 17:01:22;;;;;;;3.88;1.70;;;15.70;99.90;;;;;;4979624;28;20050;-84
2022/03/26 17:03:48;;;;;;;9.35;1.98;;;15.60;99.90;;;;;;4995824;28;20038;-85
2022/03/26 17:06:14;;;;;;;6.13;1.98;;;15.30;99.90;;;;;;4997687;28;20390;-85
2022/03/26 17:08:39;;;;;;;7.85;2.38;;;15.20;99.90;;;;;;4980055;28;20503;-84
2022/03/26 17:11:06;;;;;;;7.63;2.80;;;15.10;99.90;;;;;;4979859;28;20069;-85
2022/03/26 17:13:31;;;;;;;6.47;3.00;;;14.90;99.90;;;;;;4980232;28;20052;-84
2022/03/26 17:16:07;;;;;;;7.00;2.88;;;14.70;99.90;;;;;;4996842;28;20121;-88
2022/03/26 17:18:49;;;;;;;7.90;3.45;;;14.60;99.90;;;;;;4997187;28;20042;-86
2022/03/26 17:21:15;;;;;;;7.90;3.67;;;14.60;99.90;;;;;;4931767;28;20046;-85
2022/03/26 17:23:41;;;;;;;7.20;3.50;;;14.50;99.90;;;;;;4979503;28;20121;-85
2022/03/26 17:26:07;;;;;;;10.82;3.50;;;14.40;99.90;;;;;;4996974;28;20034;-80
2022/03/26 17:28:33;;;;;;;9.32;4.10;;;14.30;99.90;;;;;;4996288;28;20046;-85
2022/03/26 17:30:58;;;;;;;7.45;3.40;;;14.30;99.90;;;;;;4979804;28;20076;-85
2022/03/26 17:33:24;;;;;;;8.23;2.80;;;14.30;99.90;;;;;;4979882;28;20047;-85
2022/03/26 17:35:49;;;;;;;4.50;2.40;;;14.20;99.90;;;;;;4979146;28;20163;-84
2022/03/26 17:38:25;;;;;;;4.78;2.80;;;14.10;99.90;;;;;;4979415;28;20050;-85
2022/03/26 17:40:51;;;;;;;4.15;2.38;;;14.00;99.90;;;;;;4996514;28;20486;-85
2022/03/26 17:43:28;;;;;;;5.63;2.88;;;13.90;99.90;;;;;;4962291;28;20042;-87
2022/03/26 17:45:54;;;;;;;5.75;3.22;;;13.90;99.90;;;;;;4906132;28;20050;-85
2022/03/26 17:48:20;;;;;;;6.53;3.13;;;13.80;99.90;;;;;;4977408;28;20039;-85
2022/03/26 17:50:45;;;;;;;6.07;3.35;;;13.70;99.90;;;;;;4974338;28;20047;-86
2022/03/26 17:53:11;;;;;;;6.80;3.45;;;13.70;99.90;;;;;;4979843;28;20136;-85
2022/03/26 17:55:36;;;;;;;5.63;3.13;;;13.70;99.90;;;;;;4996584;28;20034;-85
2022/03/26 17:58:02;;;;;;;6.22;3.53;;;13.70;99.90;;;;;;4979306;28;20398;-84
2022/03/26 18:00:28;;;;;;;7.65;3.70;;;13.60;99.90;;;;;;4996797;28;20384;-86
2022/03/26 18:02:54;;;;;;;7.55;3.90;;;13.60;99.90;;;;;;4996375;28;20107;-87
2022/03/26 18:05:19;;;;;;;8.57;4.55;;;13.60;99.90;;;;;;4978921;28;20509;-86
2022/03/26 18:07:45;;;;;;;8.15;4.40;;;13.60;99.90;;;;;;4979931;28;20038;-82
2022/03/26 18:10:11;;;;;;;7.93;4.60;;;13.50;99.90;;;;;;4978869;28;20045;-73
2022/03/26 18:12:36;;;;;;;8.02;4.90;;;13.40;99.90;;;;;;4963728;28;20047;-85
2022/03/26 18:15:04;;;;;;;9.20;5.20;;;13.30;99.90;;;;;;4997271;28;20042;-86
2022/03/26 18:17:29;;;;;;;8.23;4.85;;;13.30;99.90;;;;;;4979159;28;20077;-82
2022/03/26 18:19:55;;;;;;;12.25;6.22;;;13.20;99.90;;;;;;4997105;28;20035;-89
2022/03/26 18:22:20;;;;;;;9.25;5.43;;;13.20;99.90;;;;;;4997574;28;20065;-87
2022/03/26 18:24:47;;;;;;;10.52;5.38;;;13.20;99.90;;;;;;4997548;28;20065;-84
2022/03/26 18:27:16;;;;;;;8.60;4.70;;;13.10;99.90;;;;;;4979812;28;20091;-85
2022/03/26 18:29:42;;;;;;;8.65;4.68;;;13.00;99.90;;;;;;4997326;28;20121;-88
2022/03/26 18:32:08;;;;;;;11.68;4.65;;;12.90;99.90;;;;;;4980584;28;20082;-87
2022/03/26 18:34:34;;;;;;;8.15;4.45;;;12.80;99.90;;;;;;4980216;28;20091;-90
2022/03/26 18:37:01;;;;;;;7.47;4.30;;;12.70;99.90;;;;;;4963796;28;20061;-86
2022/03/26 18:39:27;;;;;;;11.10;4.28;;;12.70;99.90;;;;;;4979838;28;20046;-86
2022/03/26 18:41:53;;;;;;;7.15;4.40;;;12.60;99.90;;;;;;4977885;28;20101;-85
2022/03/26 18:44:19;;;;;;;9.23;4.97;;;12.50;99.90;;;;;;4996265;28;20491;-86
2022/03/26 18:46:45;;;;;;;9.18;5.40;;;12.40;99.90;;;;;;4996068;28;20114;-86
2022/03/26 18:49:12;;;;;;;11.70;5.57;;;12.40;99.90;;;;;;4962857;28;20049;-84
2022/03/26 18:51:39;;;;;;;10.57;5.80;;;12.30;99.90;;;;;;4963059;28;20077;-84
2022/03/26 18:54:04;;;;;;;12.27;7.22;;;12.30;99.90;;;;;;4979144;28;20475;-89
2022/03/26 18:56:32;;;;;;;10.80;6.95;;;12.30;99.90;;;;;;4997337;28;20060;-89
2022/03/26 18:58:59;;;;;;;11.85;7.28;;;12.20;99.90;;;;;;4980044;28;20037;-85
2022/03/26 19:01:25;;;;;;;11.85;7.18;;;12.20;99.90;;;;;;5001013;28;20044;-84
2022/03/26 19:03:51;;;;;;;11.80;6.80;;;12.00;99.90;;;;;;4967550;28;20117;-86
2022/03/26 19:06:17;;;;;;;14.93;7.43;;;11.90;99.90;;;;;;4982340;28;20113;-85
2022/03/26 19:08:43;;;;;;;11.80;6.95;;;11.80;99.90;;;;;;5001718;28;20081;-85
2022/03/26 19:11:09;;;;;;;14.02;7.13;;;11.60;99.90;;;;;;5001179;28;20080;-88
2022/03/26 19:13:35;;;;;;;10.90;6.68;;;11.50;99.90;;;;;;4983967;28;20050;-90
2022/03/26 19:16:00;;;;;;;10.43;6.35;;;11.60;99.90;;;;;;4983297;28;20380;-87
2022/03/26 19:18:26;;;;;;;11.32;6.97;;;11.50;99.90;;;;;;4983148;28;20042;-89